Hills Flat, California
Current Conditions -  °F | °C
As of 11:20 AM on Saturday 25 Oct 2014 (Local Time) from KGOO Reporting Station
Overcast Overcast  
Wind Chill: 44°   Ceiling: 200
Heat Index: 46°   Visibility: 1mi
Dew Point: 46°   Wind: 5mph
Humidity: 100%   Direction: 150°SSE
Pressure: 30.09"   Gusts: NA
Location:  39.2183°N, 120.924°W
Report Text: KGOO 251820Z AUTO 15004KT 1SM OVC002 08/08 A3009 RMK AO1 P0002
Loading
Personal Weather Stations






























Interactive Weather Map
Tropical Storm Tracking
New forecast layout! Learn more

10-Day Weather Forecast

Advertisements
Track Severe Weather on mobile